EDT,Max TemperatureF,Mean TemperatureF,Min TemperatureF,Max Dew PointF,MeanDew PointF,Min DewpointF,Max Humidity, Mean Humidity, Min Humidity, Max Sea Level PressureIn, Mean Sea Level PressureIn, Min Sea Level PressureIn, Max VisibilityMiles, Mean VisibilityMiles, Min VisibilityMiles, Max Wind SpeedMPH, Mean Wind SpeedMPH, Max Gust SpeedMPH,PrecipitationIn, CloudCover, Events, WindDirDegrees
2012-10-1,86,78,71,75,72,70,100,81,58,29.83,29.78,29.75,10,7,5,10,2,16,0.00,4,,164
2012-10-2,86,80,75,77,73,70,94,79,62,29.99,29.85,29.76,10,7,5,13,5,21,0.00,5,Rain-Thunderstorm,190
2012-10-3,80,76,73,77,69,64,94,76,58,30.21,30.10,29.99,10,8,5,9,4,16,0.00,5,Rain,223
2012-10-4,78,74,71,72,70,68,94,86,69,30.24,30.20,30.16,10,7,4,9,2,,0.00,4,Rain,327
2012-10-5,82,76,69,72,67,61,94,77,48,30.17,30.10,30.03,10,7,5,10,2,,0.00,2,,33
2012-10-6,84,76,69,72,69,66,94,81,55,30.03,29.97,29.90,10,7,4,8,1,,0.00,3,Thunderstorm,182
2012-10-7,86,78,71,72,70,64,100,81,48,30.01,29.97,29.93,10,7,2,10,4,,0.00,3,,229
2012-10-8,75,65,55,72,61,54,94,91,83,30.10,30.05,30.00,10,6,2,17,9,21,0.00,8,Rain-Thunderstorm,7
2012-10-9,68,60,53,55,53,52,100,82,56,30.15,30.10,30.07,10,7,3,15,8,17,0.00,5,,351
2012-10-10,73,63,53,61,56,52,100,81,53,30.15,30.10,30.04,10,7,5,10,5,17,0.00,2,,309
2012-10-11,73,64,55,59,54,48,94,69,46,30.27,30.20,30.13,10,7,5,17,6,21,0.00,0,,27
2012-10-12,78,68,59,61,58,52,100,76,41,30.24,30.20,30.15,10,7,5,6,1,,0.00,0,,312
2012-10-13,75,70,64,63,58,54,88,68,56,30.34,30.28,30.23,10,7,5,17,10,25,0.00,3,,49
2012-10-14,80,71,62,64,61,57,94,73,51,30.26,30.16,30.05,10,7,5,14,7,21,0.00,2,,64
2012-10-15,82,73,64,70,65,55,100,79,54,30.04,29.90,29.78,10,7,2,12,3,17,0.00,3,Rain-Thunderstorm,243
2012-10-16,71,64,57,55,48,41,77,58,33,29.97,29.91,29.86,10,8,5,20,7,25,0.00,0,,9
2012-10-17,73,65,57,61,56,52,94,73,53,30.00,29.93,29.89,10,7,5,9,3,,0.00,1,,45
2012-10-18,78,70,62,68,65,61,94,81,61,29.89,29.84,29.79,10,7,3,8,3,,0.00,3,Rain,169
2012-10-19,77,68,60,70,53,37,94,59,24,29.87,29.82,29.77,10,8,7,10,6,18,0.00,2,,274
2012-10-20,77,65,53,55,46,37,82,53,27,29.96,29.88,29.83,10,8,5,12,5,18,0.00,0,,257
2012-10-21,73,63,53,54,49,45,94,62,38,30.14,30.06,29.95,10,7,7,14,6,,0.00,0,,358
2012-10-22,73,63,53,55,49,39,94,64,29,30.23,30.17,30.13,10,8,5,12,3,16,0.00,0,,51
2012-10-23,77,66,55,63,58,54,100,77,50,30.19,30.15,30.11,10,7,5,9,2,,0.00,0,,56
2012-10-24,80,72,64,66,63,55,94,77,42,30.17,30.11,30.07,10,7,5,10,5,9,0.00,2,,50
2012-10-25,80,74,68,66,65,63,94,74,54,30.08,30.04,30.00,10,7,5,21,10,29,0.00,3,,56
2012-10-26,78,73,68,66,62,59,94,73,51,29.99,29.89,29.78,10,7,4,21,13,30,0.00,1,,16
2012-10-27,69,68,68,61,59,54,78,70,60,29.76,29.63,29.57,10,8,5,23,17,31,0.00,6,Rain,346
2012-10-28,77,68,60,54,50,46,68,55,34,29.67,29.62,29.57,10,8,5,20,14,29,0.00,1,,312
2012-10-29,64,57,50,46,37,32,71,47,30,29.72,29.65,29.57,10,7,4,25,15,34,0.00,2,,290
2012-10-30,62,54,46,32,28,21,57,39,22,29.78,29.65,29.60,10,7,5,24,15,32,0.00,0,,261
2012-10-31,68,57,46,37,28,18,54,36,15,29.86,29.82,29.77,10,7,4,25,13,31,0.00,0,,255